AirNav   Air Wisconsin Up To $57,000 Bonus
 
 701 users online  

69FL Griffin Heliport
Marianna, Florida, USA

GOING TO MARIANNA?


FAA INFORMATION EFFECTIVE 07 NOVEMBER 2019

Location

FAA Identifier: 69FL
Lat/Long: 30-46-08.5000N 085-04-51.1000W
30-46.141667N 085-04.851667W
30.7690278,-85.0808611
(estimated)
Elevation: 100 ft. / 30 m (estimated)
From city: 5 miles E of MARIANNA, FL
Time zone: UTC -6 (UTC -5 during Daylight Saving Time)
Zip code: 32442

Heliport Operations

Heliport use: Private use. Permission required prior to landing
Activation date: 09/2014
Control tower: no
ARTCC: JACKSONVILLE CENTER
FSS: GAINESVILLE FLIGHT SERVICE STATION
Attendance: 0700-1900
Wind indicator: yes
Segmented circle: no

Heliport Communications

WX ASOS at MAI (7 nm NW): 133.525 (850-482-6082)
WX AWOS-AV at F95 (17 nm S): 119.350 (850-674-1347)
WX AWOS-3PT at 17J (18 nm NE): 119.675 (229-524-0001)

Nearby radio navigation aids

VOR radial/distance  VOR name  Freq  Var
MAIr115/2.5MARIANNA VORTAC114.0000E
RRSr148/35.8WIREGRASS VORTAC111.6002E
SZWr287/38.7SEMINOLE VORTAC117.5002E

 
NDB name  Hdg/Dist  Freq  Var  ID
SOYYA132/9.732902WSMY ... -- -.--
WILLIS251/31.135904WLYZ .-.. -.-- --..

Heliport Services

Runway Information

Helipad H1

Dimensions: 450 x 400 ft. / 137 x 122 m
Surface: turf
Traffic pattern: leftleft

Heliport Ownership and Management from official FAA records

Ownership: Privately-owned
Owner: JOHN B GRIFFIN
6189 GLENMORE CT
MARIANNA, FL 32446
Phone 850-209-4416
Manager: JOHN B GRIFFIN
6189 GLENMORE CT
MARIANNA, FL 32446
Phone 850-209-4416

Heliport Operational Statistics

Aircraft based on the field: 3
Helicopters: 1
Ultralights: 2
    

Additional Remarks

50 FT HIGH TREES S OF HELI
30 FT HIGH POWERLINES N AND E OF HELI
4 FT FENCE NEXT TO TD AREA
FOR CD CTC CAIRNS APCH AT 334-255-8402 OR 334-255-8460, WHEN APCH CLSD CTC JACKSONVILLE ARTCC AT 904-845-1592.

Instrument Procedures

There are no published instrument procedures at 69FL.

Some nearby airports with instrument procedures:

KMAI - Marianna Municipal Airport (7 nm NW)
17J - Donalsonville Municipal Airport (18 nm NE)
KBGE - Decatur County Industrial Air Park (26 nm NE)
1J0 - Tri-County Airport (27 nm W)
2J9 - Quincy Municipal Airport (29 nm E)
 
Loc | Ops | Rwys | IFR | FBO | Links
Com | Nav | Svcs | Stats | Notes
Aerial photo
No photo
 
Airport distance calculator
Flying to Griffin Heliport? Find the distance to fly.

From to 69FL

Sunrise and sunset
Times for 15-Nov-2019
 Local
(UTC-6)
 Zulu
(UTC)
Morning civil twilight05:4211:42
Sunrise06:0812:08
Sunset16:4222:42
Evening civil twilight17:0823:08

Current date and time
Zulu (UTC)  16-Nov-2019 02:54:48
Local (UTC-6)  15-Nov-2019 20:54:48
 
METAR
KMAI 
7nm NW 
160153Z AUTO 34012KT 5SM BR BKN006 OVC011 10/09 A3005 RMK AO2 CIG 004V010 SLP174 T01000089
K17J 
18nm NE 
160230Z AUTO 01008KT 10SM OVC008 10/09 A3005 RMK AO2 T00960088
TAF
KDHN 
38nm NW 
152059Z 1521/1618 35008KT 5SM BR OVC008 FM160400 35008KT P6SM OVC020 FM160800 36007KT P6SM BKN035
KTLH 
44nm SE 
152059Z 1521/1618 34010KT P6SM BKN008 FM161000 35007KT P6SM OVC015 FM161500 34009KT P6SM FEW035
KECP 
44nm SW 
151720Z 1518/1618 35012KT P6SM OVC010 FM160700 36010KT P6SM FEW035
KOZR 
45nm NW 
160215Z 1602/1706 33012KT 9999 VCSH SCT010 BKN025 QNH3006INS TEMPO 1602/1607 BKN010 BECMG 1606/1607 35009KT 9999 NSW BKN015 QNH3007INS BECMG 1618/1619 35006KT 9999 SKC QNH2997INS TX15/1621Z TN06/1609Z
NOTAMs
Click for the latest NOTAMs
NOTAMs are issued by the DoD/FAA and will open in a separate window not controlled by AirNav.

 

 
 

Would you like to see your business listed on this page?

 If your business provides an interesting product or service to pilots, flight crews, aircraft, or users of the Griffin Heliport, you should consider listing it here.  To start the listing process, click on the button below
 
Add a business
 

Other Pages about Griffin Heliport

Update a link
 
Copyright © AirNav, LLC. All rights reserved. Privacy Policy  Contact